sensor_id;sensor_type;location;lat;lon;timestamp;P1;durP1;ratioP1;P2;durP2;ratioP2
16262;SDS011;8239;48.594;8.598;2022-10-17T00:00:11;6.43;;;5.43;;
16262;SDS011;8239;48.594;8.598;2022-10-17T00:02:38;8.10;;;5.40;;
16262;SDS011;8239;48.594;8.598;2022-10-17T00:05:05;8.13;;;5.60;;
16262;SDS011;8239;48.594;8.598;2022-10-17T00:07:32;7.27;;;4.73;;
16262;SDS011;8239;48.594;8.598;2022-10-17T00:10:00;154.43;;;11.63;;
16262;SDS011;8239;48.594;8.598;2022-10-17T00:12:28;8.97;;;5.40;;
16262;SDS011;8239;48.594;8.598;2022-10-17T00:14:55;8.40;;;5.10;;
16262;SDS011;8239;48.594;8.598;2022-10-17T00:17:22;7.23;;;5.30;;
16262;SDS011;8239;48.594;8.598;2022-10-17T00:19:49;7.47;;;6.07;;
16262;SDS011;8239;48.594;8.598;2022-10-17T00:22:16;7.93;;;5.57;;
16262;SDS011;8239;48.594;8.598;2022-10-17T00:24:43;7.83;;;5.70;;
16262;SDS011;8239;48.594;8.598;2022-10-17T00:27:10;6.90;;;5.87;;
16262;SDS011;8239;48.594;8.598;2022-10-17T00:29:38;8.17;;;6.67;;
16262;SDS011;8239;48.594;8.598;2022-10-17T00:32:05;10.20;;;6.83;;
16262;SDS011;8239;48.594;8.598;2022-10-17T00:34:32;11.00;;;6.60;;
16262;SDS011;8239;48.594;8.598;2022-10-17T00:36:59;8.43;;;6.90;;
16262;SDS011;8239;48.594;8.598;2022-10-17T00:39:26;19.43;;;6.97;;
16262;SDS011;8239;48.594;8.598;2022-10-17T00:41:53;67.60;;;8.47;;
16262;SDS011;8239;48.594;8.598;2022-10-17T00:47:26;9.20;;;5.07;;
16262;SDS011;8239;48.594;8.598;2022-10-17T00:49:54;7.17;;;5.00;;
16262;SDS011;8239;48.594;8.598;2022-10-17T00:52:22;9.60;;;5.60;;
16262;SDS011;8239;48.594;8.598;2022-10-17T00:54:53;8.53;;;5.77;;
16262;SDS011;8239;48.594;8.598;2022-10-17T00:57:22;8.03;;;6.27;;
16262;SDS011;8239;48.594;8.598;2022-10-17T00:59:52;8.57;;;6.43;;
16262;SDS011;8239;48.594;8.598;2022-10-17T01:02:23;10.03;;;7.10;;
16262;SDS011;8239;48.594;8.598;2022-10-17T01:04:50;13.17;;;7.40;;
16262;SDS011;8239;48.594;8.598;2022-10-17T01:07:20;12.03;;;7.67;;
16262;SDS011;8239;48.594;8.598;2022-10-17T01:09:47;11.40;;;8.07;;
16262;SDS011;8239;48.594;8.598;2022-10-17T01:12:17;11.53;;;7.23;;
16262;SDS011;8239;48.594;8.598;2022-10-17T01:14:49;11.70;;;6.20;;
16262;SDS011;8239;48.594;8.598;2022-10-17T01:17:31;8.23;;;5.40;;
16262;SDS011;8239;48.594;8.598;2022-10-17T01:20:15;7.83;;;5.30;;
16262;SDS011;8239;48.594;8.598;2022-10-17T01:23:17;9.80;;;6.87;;
16262;SDS011;8239;48.594;8.598;2022-10-17T01:25:55;9.67;;;6.30;;
16262;SDS011;8239;48.594;8.598;2022-10-17T01:28:45;8.93;;;6.10;;
16262;SDS011;8239;48.594;8.598;2022-10-17T01:31:28;7.07;;;5.90;;
16262;SDS011;8239;48.594;8.598;2022-10-17T01:34:03;9.57;;;5.90;;
16262;SDS011;8239;48.594;8.598;2022-10-17T01:36:38;7.83;;;5.73;;
16262;SDS011;8239;48.594;8.598;2022-10-17T01:39:13;8.03;;;5.73;;
16262;SDS011;8239;48.594;8.598;2022-10-17T01:41:46;8.47;;;6.57;;
16262;SDS011;8239;48.594;8.598;2022-10-17T01:44:18;10.43;;;7.03;;
16262;SDS011;8239;48.594;8.598;2022-10-17T01:46:49;11.37;;;7.20;;
16262;SDS011;8239;48.594;8.598;2022-10-17T01:49:20;8.43;;;6.90;;
16262;SDS011;8239;48.594;8.598;2022-10-17T01:51:52;10.77;;;7.10;;
16262;SDS011;8239;48.594;8.598;2022-10-17T01:54:22;9.20;;;6.60;;
16262;SDS011;8239;48.594;8.598;2022-10-17T01:56:55;8.07;;;5.43;;
16262;SDS011;8239;48.594;8.598;2022-10-17T01:59:24;11.27;;;6.20;;
16262;SDS011;8239;48.594;8.598;2022-10-17T02:01:56;8.40;;;5.60;;
16262;SDS011;8239;48.594;8.598;2022-10-17T02:04:24;9.57;;;5.93;;
16262;SDS011;8239;48.594;8.598;2022-10-17T02:06:54;9.47;;;5.43;;
16262;SDS011;8239;48.594;8.598;2022-10-17T02:09:32;9.03;;;6.07;;
16262;SDS011;8239;48.594;8.598;2022-10-17T02:12:04;7.77;;;5.80;;
16262;SDS011;8239;48.594;8.598;2022-10-17T02:14:49;8.20;;;5.63;;
16262;SDS011;8239;48.594;8.598;2022-10-17T02:17:29;7.40;;;5.43;;
16262;SDS011;8239;48.594;8.598;2022-10-17T02:20:07;9.77;;;5.60;;
16262;SDS011;8239;48.594;8.598;2022-10-17T02:22:42;8.67;;;5.63;;
16262;SDS011;8239;48.594;8.598;2022-10-17T02:25:17;9.23;;;6.13;;
16262;SDS011;8239;48.594;8.598;2022-10-17T02:27:53;7.07;;;5.83;;
16262;SDS011;8239;48.594;8.598;2022-10-17T02:30:28;8.77;;;6.53;;
16262;SDS011;8239;48.594;8.598;2022-10-17T02:33:00;10.57;;;6.63;;
16262;SDS011;8239;48.594;8.598;2022-10-17T02:35:33;9.73;;;6.90;;
16262;SDS011;8239;48.594;8.598;2022-10-17T02:38:03;13.47;;;7.03;;
16262;SDS011;8239;48.594;8.598;2022-10-17T02:40:33;10.57;;;7.17;;
16262;SDS011;8239;48.594;8.598;2022-10-17T02:43:02;11.13;;;7.03;;
16262;SDS011;8239;48.594;8.598;2022-10-17T02:45:29;13.27;;;6.90;;
16262;SDS011;8239;48.594;8.598;2022-10-17T02:48:03;10.67;;;6.67;;
16262;SDS011;8239;48.594;8.598;2022-10-17T02:50:33;10.63;;;7.03;;
16262;SDS011;8239;48.594;8.598;2022-10-17T02:53:07;10.17;;;6.90;;
16262;SDS011;8239;48.594;8.598;2022-10-17T02:55:38;10.37;;;6.73;;
16262;SDS011;8239;48.594;8.598;2022-10-17T02:58:11;10.93;;;6.33;;
16262;SDS011;8239;48.594;8.598;2022-10-17T03:00:43;8.57;;;6.40;;
16262;SDS011;8239;48.594;8.598;2022-10-17T03:03:22;9.67;;;6.47;;
16262;SDS011;8239;48.594;8.598;2022-10-17T03:05:51;9.50;;;6.67;;
16262;SDS011;8239;48.594;8.598;2022-10-17T03:08:18;11.13;;;6.90;;
16262;SDS011;8239;48.594;8.598;2022-10-17T03:10:46;13.00;;;6.97;;
16262;SDS011;8239;48.594;8.598;2022-10-17T03:13:13;10.17;;;7.13;;
16262;SDS011;8239;48.594;8.598;2022-10-17T03:15:41;13.43;;;7.60;;
16262;SDS011;8239;48.594;8.598;2022-10-17T03:18:08;12.17;;;6.30;;
16262;SDS011;8239;48.594;8.598;2022-10-17T03:20:36;11.40;;;6.50;;
16262;SDS011;8239;48.594;8.598;2022-10-17T03:23:03;9.27;;;5.87;;
16262;SDS011;8239;48.594;8.598;2022-10-17T03:25:30;10.03;;;6.17;;
16262;SDS011;8239;48.594;8.598;2022-10-17T03:27:57;10.03;;;5.50;;
16262;SDS011;8239;48.594;8.598;2022-10-17T03:30:25;55.17;;;7.00;;
16262;SDS011;8239;48.594;8.598;2022-10-17T03:32:53;272.13;;;13.77;;
16262;SDS011;8239;48.594;8.598;2022-10-17T03:35:20;288.13;;;13.10;;
16262;SDS011;8239;48.594;8.598;2022-10-17T03:37:48;30.57;;;5.63;;
16262;SDS011;8239;48.594;8.598;2022-10-17T03:40:15;9.30;;;5.53;;
16262;SDS011;8239;48.594;8.598;2022-10-17T03:42:42;20.27;;;6.30;;
16262;SDS011;8239;48.594;8.598;2022-10-17T03:45:09;45.90;;;6.93;;
16262;SDS011;8239;48.594;8.598;2022-10-17T03:47:36;7.27;;;5.00;;
16262;SDS011;8239;48.594;8.598;2022-10-17T03:50:03;8.33;;;5.47;;
16262;SDS011;8239;48.594;8.598;2022-10-17T03:52:31;9.77;;;6.13;;
16262;SDS011;8239;48.594;8.598;2022-10-17T03:55:00;11.77;;;6.93;;
16262;SDS011;8239;48.594;8.598;2022-10-17T03:57:26;12.43;;;7.17;;
16262;SDS011;8239;48.594;8.598;2022-10-17T03:59:53;14.03;;;8.00;;
16262;SDS011;8239;48.594;8.598;2022-10-17T04:02:20;11.77;;;8.10;;
16262;SDS011;8239;48.594;8.598;2022-10-17T04:04:47;12.33;;;7.77;;
16262;SDS011;8239;48.594;8.598;2022-10-17T04:07:14;13.57;;;8.30;;
16262;SDS011;8239;48.594;8.598;2022-10-17T04:09:41;11.90;;;8.03;;
16262;SDS011;8239;48.594;8.598;2022-10-17T04:12:10;13.17;;;6.80;;
16262;SDS011;8239;48.594;8.598;2022-10-17T04:14:37;11.77;;;7.23;;
16262;SDS011;8239;48.594;8.598;2022-10-17T04:17:04;17.63;;;10.97;;
16262;SDS011;8239;48.594;8.598;2022-10-17T04:19:30;16.73;;;11.60;;
16262;SDS011;8239;48.594;8.598;2022-10-17T04:21:58;15.50;;;11.70;;
16262;SDS011;8239;48.594;8.598;2022-10-17T04:24:25;13.40;;;10.13;;
16262;SDS011;8239;48.594;8.598;2022-10-17T04:26:51;18.93;;;10.57;;
16262;SDS011;8239;48.594;8.598;2022-10-17T04:29:20;14.33;;;9.70;;
16262;SDS011;8239;48.594;8.598;2022-10-17T04:31:47;16.17;;;8.00;;
16262;SDS011;8239;48.594;8.598;2022-10-17T04:34:16;11.67;;;7.03;;
16262;SDS011;8239;48.594;8.598;2022-10-17T04:36:43;13.03;;;7.07;;
16262;SDS011;8239;48.594;8.598;2022-10-17T04:39:11;8.73;;;5.93;;
16262;SDS011;8239;48.594;8.598;2022-10-17T04:41:38;8.97;;;5.87;;
16262;SDS011;8239;48.594;8.598;2022-10-17T04:44:05;8.23;;;6.50;;
16262;SDS011;8239;48.594;8.598;2022-10-17T04:46:34;22.23;;;18.73;;
16262;SDS011;8239;48.594;8.598;2022-10-17T04:49:00;11.03;;;8.53;;
16262;SDS011;8239;48.594;8.598;2022-10-17T04:51:28;10.97;;;9.37;;
16262;SDS011;8239;48.594;8.598;2022-10-17T04:53:55;10.07;;;8.67;;
16262;SDS011;8239;48.594;8.598;2022-10-17T04:56:23;9.53;;;8.53;;
16262;SDS011;8239;48.594;8.598;2022-10-17T04:58:50;10.67;;;8.10;;
16262;SDS011;8239;48.594;8.598;2022-10-17T05:01:18;12.30;;;7.27;;
16262;SDS011;8239;48.594;8.598;2022-10-17T05:03:47;10.47;;;8.47;;
16262;SDS011;8239;48.594;8.598;2022-10-17T05:06:15;16.20;;;11.40;;
16262;SDS011;8239;48.594;8.598;2022-10-17T05:08:42;16.40;;;11.73;;
16262;SDS011;8239;48.594;8.598;2022-10-17T05:11:16;13.17;;;9.23;;
16262;SDS011;8239;48.594;8.598;2022-10-17T05:13:48;11.20;;;8.33;;
16262;SDS011;8239;48.594;8.598;2022-10-17T05:16:16;10.67;;;7.97;;
16262;SDS011;8239;48.594;8.598;2022-10-17T05:18:46;7.53;;;6.47;;
16262;SDS011;8239;48.594;8.598;2022-10-17T05:21:15;9.33;;;6.60;;
16262;SDS011;8239;48.594;8.598;2022-10-17T05:23:42;11.43;;;7.00;;
16262;SDS011;8239;48.594;8.598;2022-10-17T05:26:09;11.57;;;6.73;;
16262;SDS011;8239;48.594;8.598;2022-10-17T05:28:36;9.97;;;6.60;;
16262;SDS011;8239;48.594;8.598;2022-10-17T05:31:03;10.70;;;6.83;;
16262;SDS011;8239;48.594;8.598;2022-10-17T05:33:31;14.40;;;8.03;;
16262;SDS011;8239;48.594;8.598;2022-10-17T05:36:00;13.10;;;8.37;;
16262;SDS011;8239;48.594;8.598;2022-10-17T05:38:27;12.70;;;8.73;;
16262;SDS011;8239;48.594;8.598;2022-10-17T05:41:04;13.47;;;8.17;;
16262;SDS011;8239;48.594;8.598;2022-10-17T05:43:42;11.40;;;7.87;;
16262;SDS011;8239;48.594;8.598;2022-10-17T05:46:10;11.23;;;7.10;;
16262;SDS011;8239;48.594;8.598;2022-10-17T05:48:37;10.03;;;6.80;;
16262;SDS011;8239;48.594;8.598;2022-10-17T05:51:06;9.17;;;6.30;;
16262;SDS011;8239;48.594;8.598;2022-10-17T05:53:35;19.93;;;17.83;;
16262;SDS011;8239;48.594;8.598;2022-10-17T05:56:04;15.93;;;14.40;;
16262;SDS011;8239;48.594;8.598;2022-10-17T05:58:32;11.57;;;10.07;;
16262;SDS011;8239;48.594;8.598;2022-10-17T06:01:00;12.70;;;11.50;;
16262;SDS011;8239;48.594;8.598;2022-10-17T06:03:29;11.10;;;9.30;;
16262;SDS011;8239;48.594;8.598;2022-10-17T06:06:01;12.77;;;7.10;;
16262;SDS011;8239;48.594;8.598;2022-10-17T06:08:30;9.20;;;6.37;;
16262;SDS011;8239;48.594;8.598;2022-10-17T06:10:57;8.47;;;5.83;;
16262;SDS011;8239;48.594;8.598;2022-10-17T06:13:24;6.73;;;5.47;;
16262;SDS011;8239;48.594;8.598;2022-10-17T06:15:51;5.47;;;4.90;;
16262;SDS011;8239;48.594;8.598;2022-10-17T06:18:18;5.23;;;4.40;;
16262;SDS011;8239;48.594;8.598;2022-10-17T06:20:45;5.20;;;4.70;;
16262;SDS011;8239;48.594;8.598;2022-10-17T06:23:12;5.17;;;4.63;;
16262;SDS011;8239;48.594;8.598;2022-10-17T06:25:41;4.97;;;4.40;;
16262;SDS011;8239;48.594;8.598;2022-10-17T06:28:08;5.17;;;3.97;;
16262;SDS011;8239;48.594;8.598;2022-10-17T06:30:37;4.37;;;3.97;;
16262;SDS011;8239;48.594;8.598;2022-10-17T06:33:04;3.40;;;3.10;;
16262;SDS011;8239;48.594;8.598;2022-10-17T06:35:31;3.27;;;2.97;;
16262;SDS011;8239;48.594;8.598;2022-10-17T06:37:58;5.63;;;3.07;;
16262;SDS011;8239;48.594;8.598;2022-10-17T06:40:25;2.70;;;2.50;;
16262;SDS011;8239;48.594;8.598;2022-10-17T06:42:53;3.13;;;2.47;;
16262;SDS011;8239;48.594;8.598;2022-10-17T06:45:21;5.00;;;2.70;;
16262;SDS011;8239;48.594;8.598;2022-10-17T06:47:48;3.33;;;2.45;;
16262;SDS011;8239;48.594;8.598;2022-10-17T06:50:15;6.15;;;2.30;;
16262;SDS011;8239;48.594;8.598;2022-10-17T06:52:42;2.50;;;2.30;;
16262;SDS011;8239;48.594;8.598;2022-10-17T06:55:09;2.60;;;2.22;;
16262;SDS011;8239;48.594;8.598;2022-10-17T06:57:36;4.35;;;2.30;;
16262;SDS011;8239;48.594;8.598;2022-10-17T07:00:04;4.40;;;2.28;;
16262;SDS011;8239;48.594;8.598;2022-10-17T07:02:32;2.08;;;1.90;;
16262;SDS011;8239;48.594;8.598;2022-10-17T07:04:59;3.45;;;1.80;;
16262;SDS011;8239;48.594;8.598;2022-10-17T07:07:28;4.00;;;2.00;;
16262;SDS011;8239;48.594;8.598;2022-10-17T07:09:56;2.53;;;1.95;;
16262;SDS011;8239;48.594;8.598;2022-10-17T07:12:24;3.83;;;2.03;;
16262;SDS011;8239;48.594;8.598;2022-10-17T07:14:51;4.68;;;2.20;;
16262;SDS011;8239;48.594;8.598;2022-10-17T07:17:19;2.03;;;1.90;;
16262;SDS011;8239;48.594;8.598;2022-10-17T07:19:46;2.28;;;1.95;;
16262;SDS011;8239;48.594;8.598;2022-10-17T07:22:13;3.30;;;1.92;;
16262;SDS011;8239;48.594;8.598;2022-10-17T07:24:40;2.63;;;2.05;;
16262;SDS011;8239;48.594;8.598;2022-10-17T07:27:07;2.28;;;2.08;;
16262;SDS011;8239;48.594;8.598;2022-10-17T07:29:34;2.58;;;2.00;;
16262;SDS011;8239;48.594;8.598;2022-10-17T07:32:01;2.05;;;1.90;;
16262;SDS011;8239;48.594;8.598;2022-10-17T07:34:34;4.63;;;2.10;;
16262;SDS011;8239;48.594;8.598;2022-10-17T07:37:01;4.30;;;2.03;;
16262;SDS011;8239;48.594;8.598;2022-10-17T07:39:30;6.40;;;2.20;;
16262;SDS011;8239;48.594;8.598;2022-10-17T07:42:00;3.80;;;1.67;;
16262;SDS011;8239;48.594;8.598;2022-10-17T07:44:27;3.88;;;1.67;;
16262;SDS011;8239;48.594;8.598;2022-10-17T07:46:54;4.03;;;1.55;;
16262;SDS011;8239;48.594;8.598;2022-10-17T07:49:21;4.78;;;1.70;;
16262;SDS011;8239;48.594;8.598;2022-10-17T07:51:50;1.92;;;1.70;;
16262;SDS011;8239;48.594;8.598;2022-10-17T07:54:17;2.50;;;1.52;;
16262;SDS011;8239;48.594;8.598;2022-10-17T07:56:44;2.20;;;1.50;;
16262;SDS011;8239;48.594;8.598;2022-10-17T07:59:15;2.75;;;1.48;;
16262;SDS011;8239;48.594;8.598;2022-10-17T08:01:42;4.65;;;1.85;;
16262;SDS011;8239;48.594;8.598;2022-10-17T08:04:09;3.22;;;1.80;;
16262;SDS011;8239;48.594;8.598;2022-10-17T08:06:36;3.22;;;1.55;;
16262;SDS011;8239;48.594;8.598;2022-10-17T08:09:04;1.80;;;1.55;;
16262;SDS011;8239;48.594;8.598;2022-10-17T08:11:31;1.90;;;1.70;;
16262;SDS011;8239;48.594;8.598;2022-10-17T08:14:00;2.80;;;1.50;;
16262;SDS011;8239;48.594;8.598;2022-10-17T08:16:27;4.30;;;1.58;;
16262;SDS011;8239;48.594;8.598;2022-10-17T08:18:55;2.80;;;1.60;;
16262;SDS011;8239;48.594;8.598;2022-10-17T08:21:22;3.40;;;1.83;;
16262;SDS011;8239;48.594;8.598;2022-10-17T08:23:49;4.78;;;1.67;;
16262;SDS011;8239;48.594;8.598;2022-10-17T08:26:17;3.95;;;1.90;;
16262;SDS011;8239;48.594;8.598;2022-10-17T08:28:45;3.00;;;1.90;;
16262;SDS011;8239;48.594;8.598;2022-10-17T08:31:14;1.95;;;1.50;;
16262;SDS011;8239;48.594;8.598;2022-10-17T08:33:43;2.38;;;1.60;;
16262;SDS011;8239;48.594;8.598;2022-10-17T08:36:11;2.88;;;1.60;;
16262;SDS011;8239;48.594;8.598;2022-10-17T08:38:40;2.28;;;1.50;;
16262;SDS011;8239;48.594;8.598;2022-10-17T08:41:12;1.85;;;1.70;;
16262;SDS011;8239;48.594;8.598;2022-10-17T08:43:53;2.45;;;1.50;;
16262;SDS011;8239;48.594;8.598;2022-10-17T08:46:31;1.95;;;1.73;;
16262;SDS011;8239;48.594;8.598;2022-10-17T08:49:01;2.70;;;1.60;;
16262;SDS011;8239;48.594;8.598;2022-10-17T08:51:32;1.60;;;1.50;;
16262;SDS011;8239;48.594;8.598;2022-10-17T08:54:03;3.17;;;1.83;;
16262;SDS011;8239;48.594;8.598;2022-10-17T08:56:37;3.15;;;1.65;;
16262;SDS011;8239;48.594;8.598;2022-10-17T08:59:11;2.00;;;1.80;;
16262;SDS011;8239;48.594;8.598;2022-10-17T09:01:40;2.75;;;1.90;;
16262;SDS011;8239;48.594;8.598;2022-10-17T09:07:11;3.78;;;1.70;;
16262;SDS011;8239;48.594;8.598;2022-10-17T09:09:44;3.75;;;1.90;;
16262;SDS011;8239;48.594;8.598;2022-10-17T09:12:21;3.88;;;2.05;;
16262;SDS011;8239;48.594;8.598;2022-10-17T09:14:56;2.55;;;2.00;;
16262;SDS011;8239;48.594;8.598;2022-10-17T09:17:41;2.65;;;1.92;;
16262;SDS011;8239;48.594;8.598;2022-10-17T09:20:16;2.40;;;2.20;;
16262;SDS011;8239;48.594;8.598;2022-10-17T09:22:48;4.25;;;1.88;;
16262;SDS011;8239;48.594;8.598;2022-10-17T09:25:20;2.75;;;2.05;;
16262;SDS011;8239;48.594;8.598;2022-10-17T09:27:48;2.33;;;2.13;;
16262;SDS011;8239;48.594;8.598;2022-10-17T09:30:22;3.25;;;1.90;;
16262;SDS011;8239;48.594;8.598;2022-10-17T09:32:56;2.90;;;2.30;;
16262;SDS011;8239;48.594;8.598;2022-10-17T09:35:23;3.88;;;1.90;;
16262;SDS011;8239;48.594;8.598;2022-10-17T09:37:52;3.00;;;2.15;;
16262;SDS011;8239;48.594;8.598;2022-10-17T09:40:20;2.30;;;1.92;;
16262;SDS011;8239;48.594;8.598;2022-10-17T09:42:51;3.38;;;2.20;;
16262;SDS011;8239;48.594;8.598;2022-10-17T09:45:21;2.88;;;2.53;;
16262;SDS011;8239;48.594;8.598;2022-10-17T09:47:54;3.72;;;2.60;;
16262;SDS011;8239;48.594;8.598;2022-10-17T09:50:27;4.13;;;2.60;;
16262;SDS011;8239;48.594;8.598;2022-10-17T09:52:59;2.78;;;2.50;;
16262;SDS011;8239;48.594;8.598;2022-10-17T09:55:33;2.58;;;2.33;;
16262;SDS011;8239;48.594;8.598;2022-10-17T09:58:06;2.55;;;2.13;;
16262;SDS011;8239;48.594;8.598;2022-10-17T10:00:36;4.13;;;2.47;;
16262;SDS011;8239;48.594;8.598;2022-10-17T10:05:58;2.88;;;1.98;;
16262;SDS011;8239;48.594;8.598;2022-10-17T10:08:27;2.50;;;2.30;;
16262;SDS011;8239;48.594;8.598;2022-10-17T10:10:57;2.13;;;2.00;;
16262;SDS011;8239;48.594;8.598;2022-10-17T10:13:28;3.63;;;3.00;;
16262;SDS011;8239;48.594;8.598;2022-10-17T10:16:11;2.65;;;2.30;;
16262;SDS011;8239;48.594;8.598;2022-10-17T10:18:41;2.90;;;2.30;;
16262;SDS011;8239;48.594;8.598;2022-10-17T10:21:10;2.90;;;2.70;;
16262;SDS011;8239;48.594;8.598;2022-10-17T10:23:40;3.35;;;3.05;;
16262;SDS011;8239;48.594;8.598;2022-10-17T10:26:16;2.30;;;2.10;;
16262;SDS011;8239;48.594;8.598;2022-10-17T10:28:53;3.72;;;2.10;;
16262;SDS011;8239;48.594;8.598;2022-10-17T10:31:30;2.63;;;2.08;;
16262;SDS011;8239;48.594;8.598;2022-10-17T10:34:10;2.45;;;1.88;;
16262;SDS011;8239;48.594;8.598;2022-10-17T10:36:45;2.72;;;1.70;;
16262;SDS011;8239;48.594;8.598;2022-10-17T10:39:21;3.13;;;2.13;;
16262;SDS011;8239;48.594;8.598;2022-10-17T10:41:53;2.33;;;2.13;;
16262;SDS011;8239;48.594;8.598;2022-10-17T10:44:23;4.03;;;2.78;;
16262;SDS011;8239;48.594;8.598;2022-10-17T10:47:08;4.30;;;2.63;;
16262;SDS011;8239;48.594;8.598;2022-10-17T10:49:41;2.88;;;2.47;;
16262;SDS011;8239;48.594;8.598;2022-10-17T10:52:10;2.65;;;2.00;;
16262;SDS011;8239;48.594;8.598;2022-10-17T10:54:42;3.30;;;1.70;;
16262;SDS011;8239;48.594;8.598;2022-10-17T10:57:15;1.77;;;1.30;;
16262;SDS011;8239;48.594;8.598;2022-10-17T10:59:48;1.65;;;1.50;;
16262;SDS011;8239;48.594;8.598;2022-10-17T11:02:25;2.47;;;1.50;;
16262;SDS011;8239;48.594;8.598;2022-10-17T11:04:57;1.92;;;1.40;;
16262;SDS011;8239;48.594;8.598;2022-10-17T11:07:29;2.28;;;1.10;;
16262;SDS011;8239;48.594;8.598;2022-10-17T11:09:59;3.60;;;1.20;;
16262;SDS011;8239;48.594;8.598;2022-10-17T11:12:33;3.03;;;1.20;;
16262;SDS011;8239;48.594;8.598;2022-10-17T11:15:06;2.47;;;1.30;;
16262;SDS011;8239;48.594;8.598;2022-10-17T11:17:44;2.25;;;1.30;;
16262;SDS011;8239;48.594;8.598;2022-10-17T11:20:22;2.30;;;1.40;;
16262;SDS011;8239;48.594;8.598;2022-10-17T11:22:59;1.52;;;1.13;;
16262;SDS011;8239;48.594;8.598;2022-10-17T11:25:36;1.38;;;1.23;;
16262;SDS011;8239;48.594;8.598;2022-10-17T11:28:10;1.35;;;1.25;;
16262;SDS011;8239;48.594;8.598;2022-10-17T11:30:41;1.35;;;1.25;;
16262;SDS011;8239;48.594;8.598;2022-10-17T11:33:14;1.35;;;1.20;;
16262;SDS011;8239;48.594;8.598;2022-10-17T11:35:49;2.42;;;1.40;;
16262;SDS011;8239;48.594;8.598;2022-10-17T11:38:20;1.20;;;1.10;;
16262;SDS011;8239;48.594;8.598;2022-10-17T11:40:54;1.25;;;1.00;;
16262;SDS011;8239;48.594;8.598;2022-10-17T11:43:24;2.42;;;1.30;;
16262;SDS011;8239;48.594;8.598;2022-10-17T11:45:55;1.15;;;1.05;;
16262;SDS011;8239;48.594;8.598;2022-10-17T11:48:28;2.38;;;1.20;;
16262;SDS011;8239;48.594;8.598;2022-10-17T11:51:01;2.75;;;1.33;;
16262;SDS011;8239;48.594;8.598;2022-10-17T11:53:38;2.72;;;1.20;;
16262;SDS011;8239;48.594;8.598;2022-10-17T11:56:12;1.90;;;1.23;;
16262;SDS011;8239;48.594;8.598;2022-10-17T11:58:46;1.60;;;1.40;;
16262;SDS011;8239;48.594;8.598;2022-10-17T12:01:21;2.70;;;1.20;;
16262;SDS011;8239;48.594;8.598;2022-10-17T12:04:06;1.58;;;1.10;;
16262;SDS011;8239;48.594;8.598;2022-10-17T12:06:48;1.63;;;1.20;;
16262;SDS011;8239;48.594;8.598;2022-10-17T12:09:25;2.67;;;1.38;;
16262;SDS011;8239;48.594;8.598;2022-10-17T12:12:01;2.08;;;1.38;;
16262;SDS011;8239;48.594;8.598;2022-10-17T12:14:37;3.78;;;1.40;;
16262;SDS011;8239;48.594;8.598;2022-10-17T12:17:22;2.55;;;1.42;;
16262;SDS011;8239;48.594;8.598;2022-10-17T12:22:59;1.83;;;1.40;;
16262;SDS011;8239;48.594;8.598;2022-10-17T12:26:00;2.25;;;1.27;;
16262;SDS011;8239;48.594;8.598;2022-10-17T12:28:29;2.47;;;1.20;;
16262;SDS011;8239;48.594;8.598;2022-10-17T12:30:58;1.55;;;1.27;;
16262;SDS011;8239;48.594;8.598;2022-10-17T12:33:33;2.75;;;1.40;;
16262;SDS011;8239;48.594;8.598;2022-10-17T12:51:21;2.08;;;1.25;;
16262;SDS011;8239;48.594;8.598;2022-10-17T12:53:51;3.20;;;1.40;;
16262;SDS011;8239;48.594;8.598;2022-10-17T12:56:29;1.52;;;1.27;;
16262;SDS011;8239;48.594;8.598;2022-10-17T12:59:01;1.77;;;1.25;;
16262;SDS011;8239;48.594;8.598;2022-10-17T13:01:35;2.88;;;1.45;;
16262;SDS011;8239;48.594;8.598;2022-10-17T13:04:04;3.08;;;1.30;;
16262;SDS011;8239;48.594;8.598;2022-10-17T13:06:35;2.90;;;1.40;;
16262;SDS011;8239;48.594;8.598;2022-10-17T13:09:07;1.50;;;1.27;;
16262;SDS011;8239;48.594;8.598;2022-10-17T13:11:42;1.35;;;1.10;;
16262;SDS011;8239;48.594;8.598;2022-10-17T13:14:11;2.97;;;1.48;;
16262;SDS011;8239;48.594;8.598;2022-10-17T13:16:49;1.35;;;1.25;;
16262;SDS011;8239;48.594;8.598;2022-10-17T13:19:18;1.60;;;1.30;;
16262;SDS011;8239;48.594;8.598;2022-10-17T13:21:50;2.05;;;1.50;;
16262;SDS011;8239;48.594;8.598;2022-10-17T13:24:20;2.55;;;1.35;;
16262;SDS011;8239;48.594;8.598;2022-10-17T13:26:53;1.88;;;1.40;;
16262;SDS011;8239;48.594;8.598;2022-10-17T13:29:21;2.15;;;1.45;;
16262;SDS011;8239;48.594;8.598;2022-10-17T13:31:50;2.80;;;1.48;;
16262;SDS011;8239;48.594;8.598;2022-10-17T13:34:19;2.70;;;1.50;;
16262;SDS011;8239;48.594;8.598;2022-10-17T13:36:48;3.17;;;1.50;;
16262;SDS011;8239;48.594;8.598;2022-10-17T13:39:18;2.55;;;1.50;;
16262;SDS011;8239;48.594;8.598;2022-10-17T13:41:47;1.63;;;1.50;;
16262;SDS011;8239;48.594;8.598;2022-10-17T13:44:15;1.67;;;1.58;;
16262;SDS011;8239;48.594;8.598;2022-10-17T13:46:45;1.48;;;1.38;;
16262;SDS011;8239;48.594;8.598;2022-10-17T13:49:17;2.92;;;1.40;;
16262;SDS011;8239;48.594;8.598;2022-10-17T13:51:48;2.22;;;1.50;;
16262;SDS011;8239;48.594;8.598;2022-10-17T13:54:31;6.45;;;1.65;;
16262;SDS011;8239;48.594;8.598;2022-10-17T13:57:01;2.25;;;1.40;;
16262;SDS011;8239;48.594;8.598;2022-10-17T13:59:29;1.55;;;1.40;;
16262;SDS011;8239;48.594;8.598;2022-10-17T14:02:03;2.08;;;1.60;;
16262;SDS011;8239;48.594;8.598;2022-10-17T14:04:36;4.90;;;1.95;;
16262;SDS011;8239;48.594;8.598;2022-10-17T14:07:04;2.97;;;1.80;;
16262;SDS011;8239;48.594;8.598;2022-10-17T14:09:32;3.40;;;1.40;;
16262;SDS011;8239;48.594;8.598;2022-10-17T14:12:00;4.25;;;2.00;;
16262;SDS011;8239;48.594;8.598;2022-10-17T14:14:29;2.88;;;1.77;;
16262;SDS011;8239;48.594;8.598;2022-10-17T14:16:57;2.80;;;1.55;;
16262;SDS011;8239;48.594;8.598;2022-10-17T14:19:26;3.83;;;1.90;;
16262;SDS011;8239;48.594;8.598;2022-10-17T14:24:42;1.88;;;1.42;;
16262;SDS011;8239;48.594;8.598;2022-10-17T14:27:23;2.92;;;1.50;;
16262;SDS011;8239;48.594;8.598;2022-10-17T14:29:53;4.35;;;1.90;;
16262;SDS011;8239;48.594;8.598;2022-10-17T14:32:22;3.60;;;1.60;;
16262;SDS011;8239;48.594;8.598;2022-10-17T14:34:53;4.22;;;1.67;;
16262;SDS011;8239;48.594;8.598;2022-10-17T14:37:26;2.55;;;1.30;;
16262;SDS011;8239;48.594;8.598;2022-10-17T14:40:00;3.13;;;1.48;;
16262;SDS011;8239;48.594;8.598;2022-10-17T14:42:28;1.60;;;1.50;;
16262;SDS011;8239;48.594;8.598;2022-10-17T14:44:57;2.25;;;1.40;;
16262;SDS011;8239;48.594;8.598;2022-10-17T14:47:30;3.00;;;1.50;;
16262;SDS011;8239;48.594;8.598;2022-10-17T14:50:03;3.33;;;1.45;;
16262;SDS011;8239;48.594;8.598;2022-10-17T14:52:32;2.38;;;1.50;;
16262;SDS011;8239;48.594;8.598;2022-10-17T14:55:12;2.10;;;1.27;;
16262;SDS011;8239;48.594;8.598;2022-10-17T14:57:47;1.75;;;1.42;;
16262;SDS011;8239;48.594;8.598;2022-10-17T15:00:15;1.50;;;1.40;;
16262;SDS011;8239;48.594;8.598;2022-10-17T15:02:44;1.95;;;1.65;;
16262;SDS011;8239;48.594;8.598;2022-10-17T15:05:13;1.60;;;1.50;;
16262;SDS011;8239;48.594;8.598;2022-10-17T15:07:41;2.72;;;1.40;;
16262;SDS011;8239;48.594;8.598;2022-10-17T15:10:15;3.17;;;1.52;;
16262;SDS011;8239;48.594;8.598;2022-10-17T15:12:52;1.50;;;1.40;;
16262;SDS011;8239;48.594;8.598;2022-10-17T15:15:19;3.15;;;1.77;;
16262;SDS011;8239;48.594;8.598;2022-10-17T15:17:46;2.67;;;1.70;;
16262;SDS011;8239;48.594;8.598;2022-10-17T15:20:15;2.33;;;1.60;;
16262;SDS011;8239;48.594;8.598;2022-10-17T15:22:44;4.78;;;1.75;;
16262;SDS011;8239;48.594;8.598;2022-10-17T15:25:11;3.67;;;1.63;;
16262;SDS011;8239;48.594;8.598;2022-10-17T15:27:38;2.03;;;1.55;;
16262;SDS011;8239;48.594;8.598;2022-10-17T15:30:08;2.75;;;1.58;;
16262;SDS011;8239;48.594;8.598;2022-10-17T15:32:46;1.85;;;1.67;;
16262;SDS011;8239;48.594;8.598;2022-10-17T15:35:15;3.70;;;2.30;;
16262;SDS011;8239;48.594;8.598;2022-10-17T15:37:42;4.25;;;2.63;;
16262;SDS011;8239;48.594;8.598;2022-10-17T15:40:15;4.07;;;2.75;;
16262;SDS011;8239;48.594;8.598;2022-10-17T15:42:43;3.85;;;3.10;;
16262;SDS011;8239;48.594;8.598;2022-10-17T15:45:11;5.53;;;2.60;;
16262;SDS011;8239;48.594;8.598;2022-10-17T15:47:40;4.43;;;2.00;;